This is the latest recevied weather packets stored in our database for station/object K1LBG. If no packets are shown the sender has not sent any weather packets the latest 10 day(s).
| Time | Temp. | Humidity | Pressure | Rain* | Wind** | Luminosity | Snow |
|---|---|---|---|---|---|---|---|
| 1777484488 | 14.44° C | 70% | 1014.7 hPa | 0 mm | - | - | - |
| 1777482991 | 13.33° C | 72% | 1014.9 hPa | 0 mm | - | - | - |
| 1777481782 | 13.33° C | 74% | 1014.9 hPa | 0 mm | - | - | - |
| 1777477283 | 11.11° C | 80% | 1015.3 hPa | 0 mm | - | - | - |
| 1777476111 | 10.56° C | 81% | 1015.8 hPa | 0 mm | - | - | - |
| 1777475799 | 10.56° C | 82% | 1016 hPa | 0 mm | - | - | - |
| 1777475205 | 10.56° C | 82% | 1016.3 hPa | 0 mm | - | - | - |
| 1777472812 | 9.44° C | 85% | 1016.9 hPa | 0 mm | - | - | - |
| 1777470413 | 8.89° C | 86% | 1017.1 hPa | 0 mm | - | - | - |
| 1777463201 | 8.33° C | 86% | 1017.6 hPa | 0 mm | - | - | - |
| 1777461989 | 7.78° C | 85% | 1017.7 hPa | 0 mm | - | - | - |
| 1777460233 | 7.78° C | 86% | 1017.2 hPa | 0 mm | - | - | - |
| 1777459899 | 7.22° C | 86% | 1017.3 hPa | 0 mm | - | - | - |
| 1777459008 | 7.22° C | 86% | 1017.4 hPa | 0 mm | - | - | - |
| 1777456605 | 7.22° C | 86% | 1017.2 hPa | 0 mm | - | - | - |
| 1777453601 | 6.67° C | 86% | 1016.9 hPa | 0 mm | - | - | - |
| 1777452700 | 6.67° C | 85% | 1016.7 hPa | 0 mm | - | - | - |
| 1777452390 | 6.67° C | 85% | 1016.8 hPa | 0 mm | - | - | - |
| 1777451489 | 6.67° C | 85% | 1017.1 hPa | 0 mm | - | - | - |
| 1777450932 | 6.67° C | 85% | 1017.2 hPa | 0 mm | - | - | - |
| 1777449391 | 6.67° C | 86% | 1017.1 hPa | 0 mm | - | - | - |
| 1777446393 | 7.22° C | 84% | 1018.2 hPa | 0 mm | - | - | - |
| 1777445487 | 7.22° C | 84% | 1018.5 hPa | 0 mm | - | - | - |
| 1777442490 | 7.22° C | 85% | 1018.8 hPa | 0 mm | - | - | - |
| 1777439195 | 7.22° C | 85% | 1018.5 hPa | 0 mm | - | - | - |
* Rain latest hour (hover to see other rain measurements)
** Current wind speed in m/s (hover to see current wind gust speed)